Budapest, Hungary
Current Conditions -  °F | °C
As of 11:00 AM on Wednesday 26 Nov 2014 (Local Time) from LHBP Reporting Station
Haze Haze  
Wind Chill: 34°   Ceiling: 700
Heat Index: 39°   Visibility: 3mi
Dew Point: 36°   Wind: 8mph
Humidity: 87%   Direction: 120°ESE
Pressure: 30.3"   Gusts: NA
Location:  47.51°N, 19.08°E
Report Text: LHBP 260900Z 12007KT 5000 BR BKN007 BKN045 04/02 Q1026 NOSIG
Loading
Personal Weather Stations






























Interactive Weather Map New forecast layout! Learn more

10-Day Weather Forecast

Advertisements
Track Severe Weather on mobile